sensor_id;sensor_type;location;lat;lon;timestamp;temperature;humidity
21666;DHT22;10994;45.486;9.190;2023-01-29T00:01:28;7.60;99.90
21666;DHT22;10994;45.486;9.190;2023-01-29T00:03:55;7.70;99.90
21666;DHT22;10994;45.486;9.190;2023-01-29T00:06:21;7.70;99.90
21666;DHT22;10994;45.486;9.190;2023-01-29T00:08:48;7.80;99.90
21666;DHT22;10994;45.486;9.190;2023-01-29T00:11:14;7.80;99.90
21666;DHT22;10994;45.486;9.190;2023-01-29T00:13:41;7.80;99.90
21666;DHT22;10994;45.486;9.190;2023-01-29T00:16:07;7.80;99.90
21666;DHT22;10994;45.486;9.190;2023-01-29T00:18:37;7.80;99.90
21666;DHT22;10994;45.486;9.190;2023-01-29T00:21:07;7.80;99.90
21666;DHT22;10994;45.486;9.190;2023-01-29T00:23:33;7.80;99.90
21666;DHT22;10994;45.486;9.190;2023-01-29T00:25:59;7.80;99.90
21666;DHT22;10994;45.486;9.190;2023-01-29T00:28:25;7.80;99.90
21666;DHT22;10994;45.486;9.190;2023-01-29T00:30:50;7.80;99.90
21666;DHT22;10994;45.486;9.190;2023-01-29T00:33:16;7.70;99.90
21666;DHT22;10994;45.486;9.190;2023-01-29T00:35:42;7.70;99.90
21666;DHT22;10994;45.486;9.190;2023-01-29T00:38:07;7.70;99.90
21666;DHT22;10994;45.486;9.190;2023-01-29T00:40:36;7.60;99.90
21666;DHT22;10994;45.486;9.190;2023-01-29T00:43:22;7.50;99.90
21666;DHT22;10994;45.486;9.190;2023-01-29T00:46:07;7.30;99.90
21666;DHT22;10994;45.486;9.190;2023-01-29T00:48:34;7.10;99.90
21666;DHT22;10994;45.486;9.190;2023-01-29T00:51:01;6.80;99.90
21666;DHT22;10994;45.486;9.190;2023-01-29T00:53:27;6.70;99.90
21666;DHT22;10994;45.486;9.190;2023-01-29T00:55:52;6.90;99.90
21666;DHT22;10994;45.486;9.190;2023-01-29T00:58:18;6.90;99.90
21666;DHT22;10994;45.486;9.190;2023-01-29T01:00:50;7.00;99.90
21666;DHT22;10994;45.486;9.190;2023-01-29T01:03:16;7.00;99.90
21666;DHT22;10994;45.486;9.190;2023-01-29T01:05:42;7.00;99.90
21666;DHT22;10994;45.486;9.190;2023-01-29T01:08:09;7.10;99.90
21666;DHT22;10994;45.486;9.190;2023-01-29T01:11:05;7.10;99.90
21666;DHT22;10994;45.486;9.190;2023-01-29T01:13:32;7.10;99.90
21666;DHT22;10994;45.486;9.190;2023-01-29T01:15:58;7.10;99.90
21666;DHT22;10994;45.486;9.190;2023-01-29T01:18:24;7.10;99.90
21666;DHT22;10994;45.486;9.190;2023-01-29T01:20:55;7.10;99.90
21666;DHT22;10994;45.486;9.190;2023-01-29T01:23:24;7.00;99.90
21666;DHT22;10994;45.486;9.190;2023-01-29T01:25:49;7.00;99.90
21666;DHT22;10994;45.486;9.190;2023-01-29T01:28:15;7.00;99.90
21666;DHT22;10994;45.486;9.190;2023-01-29T01:30:41;7.00;99.90
21666;DHT22;10994;45.486;9.190;2023-01-29T01:33:07;7.00;99.90
21666;DHT22;10994;45.486;9.190;2023-01-29T01:35:33;7.00;99.90
21666;DHT22;10994;45.486;9.190;2023-01-29T01:37:59;7.00;99.90
21666;DHT22;10994;45.486;9.190;2023-01-29T01:40:25;7.00;99.90
21666;DHT22;10994;45.486;9.190;2023-01-29T01:42:53;6.90;99.90
21666;DHT22;10994;45.486;9.190;2023-01-29T01:45:27;6.80;99.90
21666;DHT22;10994;45.486;9.190;2023-01-29T01:48:10;6.40;99.90
21666;DHT22;10994;45.486;9.190;2023-01-29T01:50:46;6.50;99.90
21666;DHT22;10994;45.486;9.190;2023-01-29T01:53:20;6.60;99.90
21666;DHT22;10994;45.486;9.190;2023-01-29T01:55:56;6.60;99.90
21666;DHT22;10994;45.486;9.190;2023-01-29T01:58:36;6.60;99.90
21666;DHT22;10994;45.486;9.190;2023-01-29T02:01:07;6.60;99.90
21666;DHT22;10994;45.486;9.190;2023-01-29T02:04:00;6.70;99.90
21666;DHT22;10994;45.486;9.190;2023-01-29T02:06:45;6.80;99.90
21666;DHT22;10994;45.486;9.190;2023-01-29T02:09:40;6.50;99.90
21666;DHT22;10994;45.486;9.190;2023-01-29T02:12:10;6.40;99.90
21666;DHT22;10994;45.486;9.190;2023-01-29T02:14:38;6.30;99.90
21666;DHT22;10994;45.486;9.190;2023-01-29T02:17:06;6.30;99.90
21666;DHT22;10994;45.486;9.190;2023-01-29T02:30:38;6.60;99.90
21666;DHT22;10994;45.486;9.190;2023-01-29T02:33:16;6.70;99.90
21666;DHT22;10994;45.486;9.190;2023-01-29T02:35:55;6.70;99.90
21666;DHT22;10994;45.486;9.190;2023-01-29T02:41:12;6.70;99.90
21666;DHT22;10994;45.486;9.190;2023-01-29T02:44:47;6.60;99.90
21666;DHT22;10994;45.486;9.190;2023-01-29T02:49:35;6.60;99.90
21666;DHT22;10994;45.486;9.190;2023-01-29T02:52:14;6.60;99.90
21666;DHT22;10994;45.486;9.190;2023-01-29T02:54:46;6.60;99.90
21666;DHT22;10994;45.486;9.190;2023-01-29T02:57:25;6.60;99.90
21666;DHT22;10994;45.486;9.190;2023-01-29T03:00:04;6.60;99.90
21666;DHT22;10994;45.486;9.190;2023-01-29T03:02:37;6.50;99.90
21666;DHT22;10994;45.486;9.190;2023-01-29T03:05:10;6.40;99.90
21666;DHT22;10994;45.486;9.190;2023-01-29T03:07:42;6.40;99.90
21666;DHT22;10994;45.486;9.190;2023-01-29T03:10:26;6.50;99.90
21666;DHT22;10994;45.486;9.190;2023-01-29T03:13:07;6.50;99.90
21666;DHT22;10994;45.486;9.190;2023-01-29T03:15:39;6.50;99.90
21666;DHT22;10994;45.486;9.190;2023-01-29T03:18:45;6.60;99.90
21666;DHT22;10994;45.486;9.190;2023-01-29T03:21:27;6.50;99.90
21666;DHT22;10994;45.486;9.190;2023-01-29T03:24:29;6.50;99.90
21666;DHT22;10994;45.486;9.190;2023-01-29T03:27:15;6.50;99.90
21666;DHT22;10994;45.486;9.190;2023-01-29T03:30:04;6.50;99.90
21666;DHT22;10994;45.486;9.190;2023-01-29T03:32:58;6.40;99.90
21666;DHT22;10994;45.486;9.190;2023-01-29T03:35:30;6.00;99.90
21666;DHT22;10994;45.486;9.190;2023-01-29T03:38:07;6.00;99.90
21666;DHT22;10994;45.486;9.190;2023-01-29T03:40:55;6.00;99.90
21666;DHT22;10994;45.486;9.190;2023-01-29T03:48:40;6.00;99.90
21666;DHT22;10994;45.486;9.190;2023-01-29T03:53:56;6.10;99.90
21666;DHT22;10994;45.486;9.190;2023-01-29T03:56:40;6.10;99.90
21666;DHT22;10994;45.486;9.190;2023-01-29T03:59:38;6.20;99.90
21666;DHT22;10994;45.486;9.190;2023-01-29T04:02:25;6.10;99.90
21666;DHT22;10994;45.486;9.190;2023-01-29T04:05:03;6.10;99.90
21666;DHT22;10994;45.486;9.190;2023-01-29T04:07:31;5.90;99.90
21666;DHT22;10994;45.486;9.190;2023-01-29T04:10:10;5.90;99.90
21666;DHT22;10994;45.486;9.190;2023-01-29T04:12:42;6.00;99.90
21666;DHT22;10994;45.486;9.190;2023-01-29T04:15:12;5.90;99.90
21666;DHT22;10994;45.486;9.190;2023-01-29T04:17:43;5.70;99.90
21666;DHT22;10994;45.486;9.190;2023-01-29T04:20:19;5.80;99.90
21666;DHT22;10994;45.486;9.190;2023-01-29T04:22:47;5.80;99.90
21666;DHT22;10994;45.486;9.190;2023-01-29T04:25:22;5.80;99.90
21666;DHT22;10994;45.486;9.190;2023-01-29T04:28:04;5.70;99.90
21666;DHT22;10994;45.486;9.190;2023-01-29T04:33:34;5.60;99.90
21666;DHT22;10994;45.486;9.190;2023-01-29T04:36:29;5.70;99.90
21666;DHT22;10994;45.486;9.190;2023-01-29T04:39:21;5.60;99.90
21666;DHT22;10994;45.486;9.190;2023-01-29T04:44:32;5.60;99.90
21666;DHT22;10994;45.486;9.190;2023-01-29T04:47:26;5.40;99.90
21666;DHT22;10994;45.486;9.190;2023-01-29T04:50:15;5.30;99.90
21666;DHT22;10994;45.486;9.190;2023-01-29T04:55:42;5.20;99.90
21666;DHT22;10994;45.486;9.190;2023-01-29T04:58:30;5.30;99.90
21666;DHT22;10994;45.486;9.190;2023-01-29T05:00:57;5.40;99.90
21666;DHT22;10994;45.486;9.190;2023-01-29T05:03:25;5.40;99.90
21666;DHT22;10994;45.486;9.190;2023-01-29T05:05:54;5.50;99.90
21666;DHT22;10994;45.486;9.190;2023-01-29T05:08:23;5.60;99.90
21666;DHT22;10994;45.486;9.190;2023-01-29T05:10:51;5.70;99.90
21666;DHT22;10994;45.486;9.190;2023-01-29T05:13:18;5.70;99.90
21666;DHT22;10994;45.486;9.190;2023-01-29T05:16:19;5.80;99.90
21666;DHT22;10994;45.486;9.190;2023-01-29T05:18:46;5.70;99.90
21666;DHT22;10994;45.486;9.190;2023-01-29T05:21:12;5.70;99.90
21666;DHT22;10994;45.486;9.190;2023-01-29T05:23:38;5.70;99.90
21666;DHT22;10994;45.486;9.190;2023-01-29T05:26:04;5.80;99.90
21666;DHT22;10994;45.486;9.190;2023-01-29T05:28:30;5.80;99.90
21666;DHT22;10994;45.486;9.190;2023-01-29T05:30:56;5.80;99.90
21666;DHT22;10994;45.486;9.190;2023-01-29T05:33:26;5.90;99.90
21666;DHT22;10994;45.486;9.190;2023-01-29T05:35:52;5.90;99.90
21666;DHT22;10994;45.486;9.190;2023-01-29T05:38:19;5.80;99.90
21666;DHT22;10994;45.486;9.190;2023-01-29T05:40:45;5.60;99.90
21666;DHT22;10994;45.486;9.190;2023-01-29T05:43:19;5.50;99.90
21666;DHT22;10994;45.486;9.190;2023-01-29T05:45:53;5.60;99.90
21666;DHT22;10994;45.486;9.190;2023-01-29T05:48:19;5.50;99.90
21666;DHT22;10994;45.486;9.190;2023-01-29T05:50:45;5.40;99.90
21666;DHT22;10994;45.486;9.190;2023-01-29T05:53:10;5.40;99.90
21666;DHT22;10994;45.486;9.190;2023-01-29T05:55:36;5.20;99.90
21666;DHT22;10994;45.486;9.190;2023-01-29T05:58:02;5.10;99.90
21666;DHT22;10994;45.486;9.190;2023-01-29T06:00:27;5.10;99.90
21666;DHT22;10994;45.486;9.190;2023-01-29T06:02:53;5.10;99.90
21666;DHT22;10994;45.486;9.190;2023-01-29T06:05:19;5.20;99.90
21666;DHT22;10994;45.486;9.190;2023-01-29T06:07:44;5.20;99.90
21666;DHT22;10994;45.486;9.190;2023-01-29T06:10:16;5.30;99.90
21666;DHT22;10994;45.486;9.190;2023-01-29T06:12:42;5.30;99.90
21666;DHT22;10994;45.486;9.190;2023-01-29T06:15:09;5.30;99.90
21666;DHT22;10994;45.486;9.190;2023-01-29T06:17:35;5.30;99.90
21666;DHT22;10994;45.486;9.190;2023-01-29T06:20:01;5.40;99.90
21666;DHT22;10994;45.486;9.190;2023-01-29T06:22:26;5.40;99.90
21666;DHT22;10994;45.486;9.190;2023-01-29T06:24:52;5.50;99.90
21666;DHT22;10994;45.486;9.190;2023-01-29T06:27:18;5.50;99.90
21666;DHT22;10994;45.486;9.190;2023-01-29T06:29:43;5.50;99.90
21666;DHT22;10994;45.486;9.190;2023-01-29T06:32:09;5.30;99.90
21666;DHT22;10994;45.486;9.190;2023-01-29T06:34:34;5.30;99.90
21666;DHT22;10994;45.486;9.190;2023-01-29T06:37:00;5.30;99.90
21666;DHT22;10994;45.486;9.190;2023-01-29T06:39:26;5.10;99.90
21666;DHT22;10994;45.486;9.190;2023-01-29T06:41:52;5.10;99.90
21666;DHT22;10994;45.486;9.190;2023-01-29T06:44:17;5.00;99.90
21666;DHT22;10994;45.486;9.190;2023-01-29T06:46:43;5.00;99.90
21666;DHT22;10994;45.486;9.190;2023-01-29T06:49:08;5.10;99.90
21666;DHT22;10994;45.486;9.190;2023-01-29T06:51:34;5.10;99.90
21666;DHT22;10994;45.486;9.190;2023-01-29T06:54:00;5.10;99.90
21666;DHT22;10994;45.486;9.190;2023-01-29T06:56:26;5.10;99.90
21666;DHT22;10994;45.486;9.190;2023-01-29T06:58:51;5.10;99.90
21666;DHT22;10994;45.486;9.190;2023-01-29T07:01:17;5.30;99.90
21666;DHT22;10994;45.486;9.190;2023-01-29T07:03:43;5.40;99.90
21666;DHT22;10994;45.486;9.190;2023-01-29T07:06:09;5.50;99.90
21666;DHT22;10994;45.486;9.190;2023-01-29T07:08:36;5.50;99.90
21666;DHT22;10994;45.486;9.190;2023-01-29T07:11:02;5.60;99.90
21666;DHT22;10994;45.486;9.190;2023-01-29T07:13:28;5.50;99.90
21666;DHT22;10994;45.486;9.190;2023-01-29T07:15:57;5.40;99.90
21666;DHT22;10994;45.486;9.190;2023-01-29T07:18:24;5.40;99.90
21666;DHT22;10994;45.486;9.190;2023-01-29T07:20:49;5.30;99.90
21666;DHT22;10994;45.486;9.190;2023-01-29T07:23:16;5.30;99.90
21666;DHT22;10994;45.486;9.190;2023-01-29T07:25:42;5.40;99.90
21666;DHT22;10994;45.486;9.190;2023-01-29T07:28:08;5.40;99.90
21666;DHT22;10994;45.486;9.190;2023-01-29T07:30:34;5.40;99.90
21666;DHT22;10994;45.486;9.190;2023-01-29T07:33:07;5.40;99.90
21666;DHT22;10994;45.486;9.190;2023-01-29T07:35:40;5.20;99.90
21666;DHT22;10994;45.486;9.190;2023-01-29T07:38:06;5.00;99.90
21666;DHT22;10994;45.486;9.190;2023-01-29T07:40:32;5.00;99.90
21666;DHT22;10994;45.486;9.190;2023-01-29T07:42:59;5.00;99.90
21666;DHT22;10994;45.486;9.190;2023-01-29T07:45:26;5.00;99.90
21666;DHT22;10994;45.486;9.190;2023-01-29T07:47:53;5.00;99.90
21666;DHT22;10994;45.486;9.190;2023-01-29T07:50:20;5.00;99.90
21666;DHT22;10994;45.486;9.190;2023-01-29T07:52:46;4.90;99.90
21666;DHT22;10994;45.486;9.190;2023-01-29T07:55:12;4.90;99.90
21666;DHT22;10994;45.486;9.190;2023-01-29T07:57:38;4.90;99.90
21666;DHT22;10994;45.486;9.190;2023-01-29T08:00:04;4.90;99.90
21666;DHT22;10994;45.486;9.190;2023-01-29T08:02:38;4.80;99.90
21666;DHT22;10994;45.486;9.190;2023-01-29T08:05:04;4.90;99.90
21666;DHT22;10994;45.486;9.190;2023-01-29T08:07:30;4.90;99.90
21666;DHT22;10994;45.486;9.190;2023-01-29T08:09:55;4.90;99.90
21666;DHT22;10994;45.486;9.190;2023-01-29T08:12:21;5.00;99.90
21666;DHT22;10994;45.486;9.190;2023-01-29T08:14:46;4.90;99.90
21666;DHT22;10994;45.486;9.190;2023-01-29T08:17:15;5.00;99.90
21666;DHT22;10994;45.486;9.190;2023-01-29T08:19:41;5.10;99.90
21666;DHT22;10994;45.486;9.190;2023-01-29T08:22:06;5.10;99.90
21666;DHT22;10994;45.486;9.190;2023-01-29T08:24:32;5.10;99.90
21666;DHT22;10994;45.486;9.190;2023-01-29T08:26:58;5.20;99.90
21666;DHT22;10994;45.486;9.190;2023-01-29T08:29:23;5.20;99.90
21666;DHT22;10994;45.486;9.190;2023-01-29T08:31:49;5.30;99.90
21666;DHT22;10994;45.486;9.190;2023-01-29T08:34:15;5.30;99.90
21666;DHT22;10994;45.486;9.190;2023-01-29T08:36:41;5.30;99.90
21666;DHT22;10994;45.486;9.190;2023-01-29T08:39:07;5.40;99.90
21666;DHT22;10994;45.486;9.190;2023-01-29T08:41:35;5.40;99.90
21666;DHT22;10994;45.486;9.190;2023-01-29T08:44:02;5.50;99.90
21666;DHT22;10994;45.486;9.190;2023-01-29T08:46:29;5.60;99.90
21666;DHT22;10994;45.486;9.190;2023-01-29T08:48:55;5.60;99.90
21666;DHT22;10994;45.486;9.190;2023-01-29T08:51:20;5.70;99.90
21666;DHT22;10994;45.486;9.190;2023-01-29T08:53:46;5.70;99.90
21666;DHT22;10994;45.486;9.190;2023-01-29T08:56:12;5.80;99.90
21666;DHT22;10994;45.486;9.190;2023-01-29T08:58:37;5.80;99.90
21666;DHT22;10994;45.486;9.190;2023-01-29T09:01:10;5.90;99.90
21666;DHT22;10994;45.486;9.190;2023-01-29T09:03:36;7.30;99.90
21666;DHT22;10994;45.486;9.190;2023-01-29T09:06:09;8.00;99.90
21666;DHT22;10994;45.486;9.190;2023-01-29T09:08:35;8.80;99.90
21666;DHT22;10994;45.486;9.190;2023-01-29T09:11:00;9.80;99.90
21666;DHT22;10994;45.486;9.190;2023-01-29T09:13:26;9.30;99.90
21666;DHT22;10994;45.486;9.190;2023-01-29T09:15:52;8.60;99.90
21666;DHT22;10994;45.486;9.190;2023-01-29T09:18:17;8.00;99.90
21666;DHT22;10994;45.486;9.190;2023-01-29T09:20:44;7.60;99.90
21666;DHT22;10994;45.486;9.190;2023-01-29T09:23:10;7.50;99.90
21666;DHT22;10994;45.486;9.190;2023-01-29T09:25:36;7.40;99.90
21666;DHT22;10994;45.486;9.190;2023-01-29T09:28:02;7.40;99.90
21666;DHT22;10994;45.486;9.190;2023-01-29T09:30:28;7.30;99.90
21666;DHT22;10994;45.486;9.190;2023-01-29T09:32:53;7.30;99.90
21666;DHT22;10994;45.486;9.190;2023-01-29T09:35:21;7.50;99.90
21666;DHT22;10994;45.486;9.190;2023-01-29T09:37:47;7.50;99.90
21666;DHT22;10994;45.486;9.190;2023-01-29T09:40:29;7.50;99.90
21666;DHT22;10994;45.486;9.190;2023-01-29T09:43:05;7.60;99.90
21666;DHT22;10994;45.486;9.190;2023-01-29T09:45:32;7.50;99.90
21666;DHT22;10994;45.486;9.190;2023-01-29T09:48:01;7.50;99.90
21666;DHT22;10994;45.486;9.190;2023-01-29T09:50:36;7.60;99.90
21666;DHT22;10994;45.486;9.190;2023-01-29T09:53:27;7.60;99.90
21666;DHT22;10994;45.486;9.190;2023-01-29T09:56:02;7.60;99.90
21666;DHT22;10994;45.486;9.190;2023-01-29T10:17:41;7.50;99.90
21666;DHT22;10994;45.486;9.190;2023-01-29T10:23:17;7.60;99.90
21666;DHT22;10994;45.486;9.190;2023-01-29T10:25:46;7.70;99.90
21666;DHT22;10994;45.486;9.190;2023-01-29T10:28:29;7.80;99.90
21666;DHT22;10994;45.486;9.190;2023-01-29T10:31:10;7.80;99.90
21666;DHT22;10994;45.486;9.190;2023-01-29T10:33:40;7.80;99.90
21666;DHT22;10994;45.486;9.190;2023-01-29T10:36:21;7.90;99.90
21666;DHT22;10994;45.486;9.190;2023-01-29T10:38:49;7.90;99.90
21666;DHT22;10994;45.486;9.190;2023-01-29T10:41:41;7.90;99.90
21666;DHT22;10994;45.486;9.190;2023-01-29T10:55:18;8.10;99.90
21666;DHT22;10994;45.486;9.190;2023-01-29T10:58:12;8.20;99.90
21666;DHT22;10994;45.486;9.190;2023-01-29T11:00:42;8.20;99.90
21666;DHT22;10994;45.486;9.190;2023-01-29T11:03:22;8.10;99.90
21666;DHT22;10994;45.486;9.190;2023-01-29T11:09:13;8.10;99.90
21666;DHT22;10994;45.486;9.190;2023-01-29T11:11:49;8.00;99.90
21666;DHT22;10994;45.486;9.190;2023-01-29T11:14:26;8.00;99.90
21666;DHT22;10994;45.486;9.190;2023-01-29T11:16:53;8.10;99.90
21666;DHT22;10994;45.486;9.190;2023-01-29T11:19:41;8.00;99.90
21666;DHT22;10994;45.486;9.190;2023-01-29T11:24:38;7.60;99.90
21666;DHT22;10994;45.486;9.190;2023-01-29T11:27:14;7.80;99.90
21666;DHT22;10994;45.486;9.190;2023-01-29T11:29:43;8.00;99.90
21666;DHT22;10994;45.486;9.190;2023-01-29T11:32:22;8.10;99.90
21666;DHT22;10994;45.486;9.190;2023-01-29T11:37:38;8.00;99.90
21666;DHT22;10994;45.486;9.190;2023-01-29T11:40:31;8.00;99.90
21666;DHT22;10994;45.486;9.190;2023-01-29T11:45:55;8.30;99.90
21666;DHT22;10994;45.486;9.190;2023-01-29T11:48:30;8.40;99.90
21666;DHT22;10994;45.486;9.190;2023-01-29T11:50:59;8.40;99.90
21666;DHT22;10994;45.486;9.190;2023-01-29T11:56:03;8.50;99.90
21666;DHT22;10994;45.486;9.190;2023-01-29T11:58:34;8.50;99.90
21666;DHT22;10994;45.486;9.190;2023-01-29T12:01:00;8.50;99.90
21666;DHT22;10994;45.486;9.190;2023-01-29T12:03:40;8.40;99.90
21666;DHT22;10994;45.486;9.190;2023-01-29T12:06:22;8.50;99.90
21666;DHT22;10994;45.486;9.190;2023-01-29T12:09:00;8.60;99.90
21666;DHT22;10994;45.486;9.190;2023-01-29T12:11:31;8.60;99.90
21666;DHT22;10994;45.486;9.190;2023-01-29T12:14:03;8.50;99.90
21666;DHT22;10994;45.486;9.190;2023-01-29T12:19:27;8.50;99.90
21666;DHT22;10994;45.486;9.190;2023-01-29T12:22:10;8.60;99.90
21666;DHT22;10994;45.486;9.190;2023-01-29T12:24:58;8.70;99.90
21666;DHT22;10994;45.486;9.190;2023-01-29T12:27:38;8.70;99.90
21666;DHT22;10994;45.486;9.190;2023-01-29T12:35:50;8.90;99.90
21666;DHT22;10994;45.486;9.190;2023-01-29T12:38:20;11.60;99.90
21666;DHT22;10994;45.486;9.190;2023-01-29T12:40:57;14.50;99.90
21666;DHT22;10994;45.486;9.190;2023-01-29T12:46:00;17.10;99.90
21666;DHT22;10994;45.486;9.190;2023-01-29T12:48:34;22.50;88.40
21666;DHT22;10994;45.486;9.190;2023-01-29T12:51:10;23.10;71.80
21666;DHT22;10994;45.486;9.190;2023-01-29T13:01:37;14.40;87.00
21666;DHT22;10994;45.486;9.190;2023-01-29T13:09:18;12.50;99.40
21666;DHT22;10994;45.486;9.190;2023-01-29T13:12:14;11.10;99.90
21666;DHT22;10994;45.486;9.190;2023-01-29T13:17:17;10.90;99.90
21666;DHT22;10994;45.486;9.190;2023-01-29T13:19:51;10.70;99.90
21666;DHT22;10994;45.486;9.190;2023-01-29T13:22:25;10.60;99.90
21666;DHT22;10994;45.486;9.190;2023-01-29T13:27:24;10.40;99.90
21666;DHT22;10994;45.486;9.190;2023-01-29T13:29:51;9.90;99.90
21666;DHT22;10994;45.486;9.190;2023-01-29T13:32:27;9.80;99.90
21666;DHT22;10994;45.486;9.190;2023-01-29T13:34:59;9.50;99.90
21666;DHT22;10994;45.486;9.190;2023-01-29T13:37:32;9.60;99.90
21666;DHT22;10994;45.486;9.190;2023-01-29T13:40:01;9.70;99.90
21666;DHT22;10994;45.486;9.190;2023-01-29T13:42:46;9.50;99.90
21666;DHT22;10994;45.486;9.190;2023-01-29T13:45:31;9.40;99.90
21666;DHT22;10994;45.486;9.190;2023-01-29T13:48:25;9.40;99.90
21666;DHT22;10994;45.486;9.190;2023-01-29T13:50:55;9.70;99.90
21666;DHT22;10994;45.486;9.190;2023-01-29T13:53:30;9.80;99.90
21666;DHT22;10994;45.486;9.190;2023-01-29T13:56:40;9.80;99.90
21666;DHT22;10994;45.486;9.190;2023-01-29T13:59:20;9.60;99.90
21666;DHT22;10994;45.486;9.190;2023-01-29T14:06:50;9.00;99.90
21666;DHT22;10994;45.486;9.190;2023-01-29T14:09:56;9.10;99.90
21666;DHT22;10994;45.486;9.190;2023-01-29T14:17:17;9.10;99.90
21666;DHT22;10994;45.486;9.190;2023-01-29T14:19:52;9.10;99.90
21666;DHT22;10994;45.486;9.190;2023-01-29T14:22:21;9.20;99.90
21666;DHT22;10994;45.486;9.190;2023-01-29T14:24:52;9.20;99.90
21666;DHT22;10994;45.486;9.190;2023-01-29T14:27:21;9.00;99.90
21666;DHT22;10994;45.486;9.190;2023-01-29T14:29:50;9.00;99.90
21666;DHT22;10994;45.486;9.190;2023-01-29T14:32:22;9.10;99.90
21666;DHT22;10994;45.486;9.190;2023-01-29T14:34:54;9.20;99.90
21666;DHT22;10994;45.486;9.190;2023-01-29T14:39:58;9.10;99.90
21666;DHT22;10994;45.486;9.190;2023-01-29T14:42:36;9.10;99.90
21666;DHT22;10994;45.486;9.190;2023-01-29T14:45:23;9.20;99.90
21666;DHT22;10994;45.486;9.190;2023-01-29T14:47:53;9.10;99.90
21666;DHT22;10994;45.486;9.190;2023-01-29T14:56:45;9.20;99.90
21666;DHT22;10994;45.486;9.190;2023-01-29T14:59:36;9.30;99.90
21666;DHT22;10994;45.486;9.190;2023-01-29T15:02:21;9.20;99.90
21666;DHT22;10994;45.486;9.190;2023-01-29T15:04:53;9.20;99.90
21666;DHT22;10994;45.486;9.190;2023-01-29T15:07:43;9.20;99.90
21666;DHT22;10994;45.486;9.190;2023-01-29T15:10:35;9.20;99.90
21666;DHT22;10994;45.486;9.190;2023-01-29T15:13:15;9.20;99.90
21666;DHT22;10994;45.486;9.190;2023-01-29T15:15:56;9.20;99.90
21666;DHT22;10994;45.486;9.190;2023-01-29T15:18:38;9.10;99.90
21666;DHT22;10994;45.486;9.190;2023-01-29T15:21:17;9.10;99.90
21666;DHT22;10994;45.486;9.190;2023-01-29T15:23:44;9.00;99.90
21666;DHT22;10994;45.486;9.190;2023-01-29T15:26:18;8.90;99.90
21666;DHT22;10994;45.486;9.190;2023-01-29T15:28:50;9.00;99.90
21666;DHT22;10994;45.486;9.190;2023-01-29T15:31:19;9.10;99.90
21666;DHT22;10994;45.486;9.190;2023-01-29T15:33:47;9.10;99.90
21666;DHT22;10994;45.486;9.190;2023-01-29T15:36:21;9.20;99.90
21666;DHT22;10994;45.486;9.190;2023-01-29T15:38:48;9.20;99.90
21666;DHT22;10994;45.486;9.190;2023-01-29T15:41:21;9.10;99.90
21666;DHT22;10994;45.486;9.190;2023-01-29T15:43:51;9.10;99.90
21666;DHT22;10994;45.486;9.190;2023-01-29T15:46:34;9.10;99.90
21666;DHT22;10994;45.486;9.190;2023-01-29T15:49:10;9.10;99.90
21666;DHT22;10994;45.486;9.190;2023-01-29T15:51:39;9.10;99.90
21666;DHT22;10994;45.486;9.190;2023-01-29T15:54:15;9.00;99.90
21666;DHT22;10994;45.486;9.190;2023-01-29T15:56:50;8.90;99.90
21666;DHT22;10994;45.486;9.190;2023-01-29T15:59:28;8.90;99.90
21666;DHT22;10994;45.486;9.190;2023-01-29T16:01:55;8.80;99.90
21666;DHT22;10994;45.486;9.190;2023-01-29T16:04:26;8.70;99.90
21666;DHT22;10994;45.486;9.190;2023-01-29T16:06:54;8.60;99.90
21666;DHT22;10994;45.486;9.190;2023-01-29T16:09:23;8.60;99.90
21666;DHT22;10994;45.486;9.190;2023-01-29T16:11:50;8.60;99.90
21666;DHT22;10994;45.486;9.190;2023-01-29T16:14:19;8.60;99.90
21666;DHT22;10994;45.486;9.190;2023-01-29T16:16:45;8.50;99.90
21666;DHT22;10994;45.486;9.190;2023-01-29T16:19:27;8.60;99.90
21666;DHT22;10994;45.486;9.190;2023-01-29T16:21:59;8.70;99.90
21666;DHT22;10994;45.486;9.190;2023-01-29T16:24:26;8.80;99.90
21666;DHT22;10994;45.486;9.190;2023-01-29T16:26:59;8.70;99.90
21666;DHT22;10994;45.486;9.190;2023-01-29T16:29:31;8.50;99.90
21666;DHT22;10994;45.486;9.190;2023-01-29T16:32:01;8.60;99.90
21666;DHT22;10994;45.486;9.190;2023-01-29T16:36:57;8.60;99.90
21666;DHT22;10994;45.486;9.190;2023-01-29T16:39:26;8.40;99.90
21666;DHT22;10994;45.486;9.190;2023-01-29T16:44:40;8.40;99.90
21666;DHT22;10994;45.486;9.190;2023-01-29T16:47:19;8.40;99.90
21666;DHT22;10994;45.486;9.190;2023-01-29T16:52:32;8.60;99.90
21666;DHT22;10994;45.486;9.190;2023-01-29T16:55:04;8.60;99.90
21666;DHT22;10994;45.486;9.190;2023-01-29T16:57:39;8.40;99.90
21666;DHT22;10994;45.486;9.190;2023-01-29T17:00:21;8.40;99.90
21666;DHT22;10994;45.486;9.190;2023-01-29T17:02:50;8.60;99.90
21666;DHT22;10994;45.486;9.190;2023-01-29T17:05:28;8.50;99.90
21666;DHT22;10994;45.486;9.190;2023-01-29T17:07:58;8.30;99.90
21666;DHT22;10994;45.486;9.190;2023-01-29T17:10:32;8.20;99.90
21666;DHT22;10994;45.486;9.190;2023-01-29T17:13:08;8.10;99.90
21666;DHT22;10994;45.486;9.190;2023-01-29T17:18:28;7.90;99.90
21666;DHT22;10994;45.486;9.190;2023-01-29T17:20:53;7.90;99.90
21666;DHT22;10994;45.486;9.190;2023-01-29T17:23:20;7.90;99.90
21666;DHT22;10994;45.486;9.190;2023-01-29T17:25:46;8.00;99.90
21666;DHT22;10994;45.486;9.190;2023-01-29T17:28:16;8.10;99.90
21666;DHT22;10994;45.486;9.190;2023-01-29T17:30:42;8.10;99.90
21666;DHT22;10994;45.486;9.190;2023-01-29T17:33:13;8.20;99.90
21666;DHT22;10994;45.486;9.190;2023-01-29T17:35:40;8.10;99.90
21666;DHT22;10994;45.486;9.190;2023-01-29T17:38:14;8.00;99.90
21666;DHT22;10994;45.486;9.190;2023-01-29T17:43:10;7.90;99.90
21666;DHT22;10994;45.486;9.190;2023-01-29T17:45:38;7.90;99.90
21666;DHT22;10994;45.486;9.190;2023-01-29T17:48:20;7.90;99.90
21666;DHT22;10994;45.486;9.190;2023-01-29T17:50:48;7.80;99.90
21666;DHT22;10994;45.486;9.190;2023-01-29T17:53:15;7.80;99.90
21666;DHT22;10994;45.486;9.190;2023-01-29T17:55:42;7.80;99.90
21666;DHT22;10994;45.486;9.190;2023-01-29T17:58:18;8.00;99.90
21666;DHT22;10994;45.486;9.190;2023-01-29T18:00:44;8.00;99.90
21666;DHT22;10994;45.486;9.190;2023-01-29T18:03:10;7.90;99.90
21666;DHT22;10994;45.486;9.190;2023-01-29T18:05:37;7.90;99.90
21666;DHT22;10994;45.486;9.190;2023-01-29T18:08:19;7.90;99.90
21666;DHT22;10994;45.486;9.190;2023-01-29T18:10:46;7.80;99.90
21666;DHT22;10994;45.486;9.190;2023-01-29T18:13:12;7.90;99.90
21666;DHT22;10994;45.486;9.190;2023-01-29T18:15:38;8.00;99.90
21666;DHT22;10994;45.486;9.190;2023-01-29T18:18:05;8.20;99.90
21666;DHT22;10994;45.486;9.190;2023-01-29T18:20:31;8.30;99.90
21666;DHT22;10994;45.486;9.190;2023-01-29T18:23:02;8.30;99.90
21666;DHT22;10994;45.486;9.190;2023-01-29T18:25:29;8.30;99.90
21666;DHT22;10994;45.486;9.190;2023-01-29T18:27:55;8.40;99.90
21666;DHT22;10994;45.486;9.190;2023-01-29T18:30:21;8.40;99.90
21666;DHT22;10994;45.486;9.190;2023-01-29T18:32:47;8.40;99.90
21666;DHT22;10994;45.486;9.190;2023-01-29T18:35:13;8.40;99.90
21666;DHT22;10994;45.486;9.190;2023-01-29T18:37:39;8.20;99.90